createdAt,value
2023-04-18T00:01:25.226Z,1.50
2023-04-18T00:06:27.520Z,1.38
2023-04-18T00:11:30.427Z,1.40
2023-04-18T00:16:33.352Z,1.40
2023-04-18T00:21:37.409Z,1.38
2023-04-18T00:26:39.433Z,1.50
2023-04-18T00:31:41.491Z,1.05
2023-04-18T00:36:43.459Z,1.48
2023-04-18T00:41:45.713Z,1.30
2023-04-18T00:46:48.477Z,1.30
2023-04-18T00:51:51.800Z,1.27
2023-04-18T00:56:54.138Z,1.30
2023-04-18T01:01:56.250Z,1.70
2023-04-18T01:06:58.777Z,1.48
2023-04-18T01:12:02.212Z,1.40
2023-04-18T01:17:04.184Z,1.50
2023-04-18T01:22:07.283Z,1.33
2023-04-18T01:27:13.624Z,1.98
2023-04-18T01:32:17.861Z,1.40
2023-04-18T01:37:22.122Z,1.50
2023-04-18T01:42:24.253Z,1.15
2023-04-18T01:47:26.266Z,1.40
2023-04-18T01:52:28.514Z,1.27
2023-04-18T01:57:31.288Z,1.10
2023-04-18T02:02:33.513Z,1.10
2023-04-18T02:07:35.832Z,1.40
2023-04-18T02:12:37.937Z,1.17
2023-04-18T02:17:41.928Z,1.45
2023-04-18T02:22:44.480Z,1.25
2023-04-18T02:27:46.530Z,1.73
2023-04-18T02:32:52.303Z,1.48
2023-04-18T02:37:54.399Z,1.23
2023-04-18T02:42:56.421Z,1.35
2023-04-18T02:47:58.651Z,1.63
2023-04-18T02:53:00.698Z,1.30
2023-04-18T02:58:13.288Z,1.20
2023-04-18T03:03:27.285Z,1.23
2023-04-18T03:08:36.010Z,1.33
2023-04-18T03:13:38.383Z,1.40
2023-04-18T03:18:40.952Z,1.10
2023-04-18T03:23:43.097Z,1.40
2023-04-18T03:28:46.125Z,1.63
2023-04-18T03:33:49.379Z,1.40
2023-04-18T03:38:51.632Z,1.48
2023-04-18T03:43:53.858Z,1.33
2023-04-18T03:48:56.045Z,1.85
2023-04-18T03:53:58.339Z,1.50
2023-04-18T03:59:00.514Z,1.70
2023-04-18T04:04:03.366Z,1.65
2023-04-18T04:09:05.682Z,1.55
2023-04-18T04:14:08.378Z,1.10
2023-04-18T04:19:15.440Z,1.77
2023-04-18T04:24:38.861Z,1.58
2023-04-18T04:29:43.901Z,1.58
2023-04-18T04:34:47.715Z,1.75
2023-04-18T04:39:49.787Z,1.38
2023-04-18T04:45:10.855Z,1.58
2023-04-18T04:50:15.792Z,1.50
2023-04-18T04:55:19.170Z,1.40
2023-04-18T05:00:22.282Z,1.33
2023-04-18T05:05:25.622Z,1.70
2023-04-18T05:10:27.762Z,1.63
2023-04-18T05:15:30.335Z,1.73
2023-04-18T05:20:32.364Z,1.30
2023-04-18T05:25:34.547Z,1.33
2023-04-18T05:30:36.693Z,1.42
2023-04-18T05:35:38.960Z,1.30
2023-04-18T05:40:42.646Z,1.55
2023-04-18T05:45:44.701Z,1.73
2023-04-18T05:50:46.791Z,1.70
2023-04-18T05:55:49.123Z,1.20
2023-04-18T06:00:52.902Z,1.83
2023-04-18T06:05:55.054Z,1.65
2023-04-18T06:10:57.188Z,1.67
2023-04-18T06:16:00.777Z,2.20
2023-04-18T06:21:02.912Z,1.67
2023-04-18T06:26:05.119Z,1.40
2023-04-18T06:31:08.690Z,1.60
2023-04-18T06:36:10.782Z,2.03
2023-04-18T06:41:14.869Z,1.50
2023-04-18T06:46:17.015Z,2.03
2023-04-18T06:51:19.042Z,1.45
2023-04-18T06:56:21.385Z,1.17
2023-04-18T07:01:23.480Z,1.20
2023-04-18T07:06:26.447Z,1.58
2023-04-18T07:11:29.086Z,1.63
2023-04-18T07:16:31.250Z,1.48
2023-04-18T07:21:33.457Z,1.38
2023-04-18T07:26:35.792Z,1.70
2023-04-18T07:31:37.874Z,1.40
2023-04-18T07:36:41.045Z,1.70
2023-04-18T07:41:43.125Z,2.05
2023-04-18T07:46:45.342Z,1.95
2023-04-18T07:51:47.479Z,1.90
2023-04-18T07:56:49.530Z,1.80
2023-04-18T08:01:51.560Z,1.75
2023-04-18T08:06:53.872Z,1.80
2023-04-18T08:11:56.881Z,1.73
2023-04-18T08:16:58.871Z,2.08
2023-04-18T08:22:10.195Z,1.80
2023-04-18T08:27:12.446Z,1.83
2023-04-18T08:32:14.558Z,1.75
2023-04-18T08:37:16.772Z,1.52
2023-04-18T08:42:19.572Z,1.52
2023-04-18T08:47:21.770Z,1.45
2023-04-18T08:52:24.634Z,1.63
2023-04-18T08:57:31.218Z,1.73
2023-04-18T09:02:47.138Z,1.63
2023-04-18T09:07:51.203Z,1.88
2023-04-18T09:18:00.314Z,1.95
2023-04-18T09:23:04.532Z,1.55
2023-04-18T09:28:27.197Z,1.45
2023-04-18T09:33:36.956Z,1.70
2023-04-18T09:38:42.232Z,2.03
2023-04-18T09:43:45.667Z,2.30
2023-04-18T09:48:47.761Z,2.10
2023-04-18T09:53:50.616Z,2.00
2023-04-18T09:59:01.822Z,2.10
2023-04-18T10:04:06.937Z,1.70
2023-04-18T10:09:10.301Z,1.98
2023-04-18T10:14:16.301Z,2.00
2023-04-18T10:19:29.757Z,2.22
2023-04-18T10:24:53.696Z,1.90
2023-04-18T10:29:56.322Z,2.10
2023-04-18T10:34:59.946Z,1.73
2023-04-18T10:40:06.793Z,2.00
2023-04-18T10:45:29.805Z,2.25
2023-04-18T10:50:31.822Z,2.28
2023-04-18T10:55:34.369Z,1.95
2023-04-18T11:00:36.580Z,2.38
2023-04-18T11:05:38.787Z,2.17
2023-04-18T11:10:41.319Z,1.98
2023-04-18T11:15:43.343Z,2.45
2023-04-18T11:20:50.085Z,2.38
2023-04-18T11:25:54.613Z,2.00
2023-04-18T11:30:59.473Z,2.10
2023-04-18T11:36:02.865Z,2.42
2023-04-18T11:41:04.934Z,2.13
2023-04-18T11:46:07.033Z,2.45
2023-04-18T11:51:33.235Z,2.20
2023-04-18T11:56:36.800Z,2.55
2023-04-18T12:06:51.608Z,2.80
2023-04-18T12:12:04.334Z,2.45
2023-04-18T12:17:06.550Z,2.30
2023-04-18T12:22:09.807Z,2.55
2023-04-18T12:27:12.375Z,2.47
2023-04-18T12:32:14.408Z,2.20
2023-04-18T12:37:16.516Z,2.33
2023-04-18T12:42:18.757Z,2.30
2023-04-18T12:47:21.031Z,2.35
2023-04-18T12:52:23.234Z,2.72
2023-04-18T12:57:25.799Z,2.55
2023-04-18T13:02:29.528Z,2.58
2023-04-18T13:17:39.050Z,2.15
2023-04-18T13:22:42.544Z,2.08
2023-04-18T13:27:46.094Z,2.08
2023-04-18T13:32:48.268Z,2.30
2023-04-18T13:37:50.491Z,2.25
2023-04-18T13:42:52.426Z,2.40
2023-04-18T13:47:54.621Z,2.80
2023-04-18T13:52:56.803Z,2.30
2023-04-18T13:57:58.886Z,2.35
2023-04-18T14:03:01.525Z,2.20
2023-04-18T14:08:04.269Z,2.55
2023-04-18T14:13:06.473Z,2.30
2023-04-18T14:18:08.707Z,2.10
2023-04-18T14:23:11.175Z,2.08
2023-04-18T14:28:13.548Z,2.35
2023-04-18T14:33:15.562Z,2.67
2023-04-18T14:38:17.769Z,2.20
2023-04-18T14:43:19.863Z,2.10
2023-04-18T14:48:22.147Z,2.50
2023-04-18T14:53:25.000Z,1.88
2023-04-18T14:58:27.117Z,2.38
2023-04-18T15:03:29.626Z,1.63
2023-04-18T15:08:32.807Z,2.13
2023-04-18T15:13:35.357Z,2.45
2023-04-18T15:18:37.505Z,2.20
2023-04-18T15:23:39.655Z,2.17
2023-04-18T15:28:41.770Z,2.05
2023-04-18T15:33:43.894Z,2.20
2023-04-18T15:38:45.992Z,1.85
2023-04-18T15:43:48.299Z,1.95
2023-04-18T15:48:50.520Z,2.08
2023-04-18T15:53:52.649Z,1.92
2023-04-18T15:58:57.981Z,2.03
2023-04-18T16:04:00.298Z,2.00
2023-04-18T16:09:02.514Z,1.85
2023-04-18T16:14:04.592Z,2.10
2023-04-18T16:19:06.777Z,2.28
2023-04-18T16:24:08.916Z,2.28
2023-04-18T16:29:11.208Z,1.95
2023-04-18T16:34:14.748Z,2.22
2023-04-18T16:39:18.156Z,2.03
2023-04-18T16:44:20.273Z,2.00
2023-04-18T16:49:23.831Z,2.22
2023-04-18T16:54:26.043Z,1.63
2023-04-18T16:59:28.112Z,2.08
2023-04-18T17:04:30.388Z,2.20
2023-04-18T17:09:32.463Z,2.13
2023-04-18T17:14:35.078Z,1.80
2023-04-18T17:19:37.201Z,2.20
2023-04-18T17:24:39.313Z,1.67
2023-04-18T17:29:42.085Z,1.80
2023-04-18T17:34:44.294Z,1.50
2023-04-18T17:39:46.464Z,1.73
2023-04-18T17:44:48.649Z,1.70
2023-04-18T17:49:50.694Z,1.85
2023-04-18T17:54:52.687Z,1.92
2023-04-18T17:59:54.849Z,1.77
2023-04-18T18:04:57.738Z,1.83
2023-04-18T18:09:59.775Z,1.85
2023-04-18T18:15:02.123Z,1.77
2023-04-18T18:20:09.891Z,1.80
2023-04-18T18:25:12.148Z,2.08
2023-04-18T18:30:14.393Z,2.10
2023-04-18T18:35:16.493Z,2.05
2023-04-18T18:40:18.654Z,1.80
2023-04-18T18:45:21.853Z,1.92
2023-04-18T18:50:24.142Z,1.75
2023-04-18T18:55:26.185Z,1.70
2023-04-18T19:00:28.480Z,2.00
2023-04-18T19:05:30.552Z,1.67
2023-04-18T19:10:33.169Z,1.67
2023-04-18T19:15:35.433Z,1.67
2023-04-18T19:20:40.450Z,1.38
2023-04-18T19:25:42.809Z,1.55
2023-04-18T19:30:45.519Z,1.90
2023-04-18T19:35:47.651Z,1.48
2023-04-18T19:40:49.717Z,1.65
2023-04-18T19:45:53.210Z,1.65
2023-04-18T19:50:57.625Z,1.70
2023-04-18T19:55:59.856Z,1.80
2023-04-18T20:01:02.353Z,1.65
2023-04-18T20:06:05.857Z,1.50
2023-04-18T20:11:09.704Z,1.83
2023-04-18T20:21:14.474Z,1.65
2023-04-18T20:26:16.663Z,1.60
2023-04-18T20:31:18.758Z,1.60
2023-04-18T20:36:20.923Z,1.70
2023-04-18T20:41:24.380Z,1.50
2023-04-18T20:46:26.632Z,1.80
2023-04-18T20:51:29.768Z,1.70
2023-04-18T20:56:32.336Z,1.83
2023-04-18T21:01:36.160Z,1.38
2023-04-18T21:06:39.234Z,1.48
2023-04-18T21:11:41.487Z,1.60
2023-04-18T21:16:43.901Z,1.95
2023-04-18T21:21:46.032Z,1.85
2023-04-18T21:26:48.100Z,1.35
2023-04-18T21:31:50.428Z,1.75
2023-04-18T21:36:52.531Z,1.70
2023-04-18T21:41:54.612Z,1.42
2023-04-18T21:46:57.332Z,1.42
2023-04-18T21:51:59.588Z,1.65
2023-04-18T21:57:02.743Z,1.40
2023-04-18T22:02:05.698Z,1.60
2023-04-18T22:07:07.805Z,1.40
2023-04-18T22:12:09.952Z,1.73
2023-04-18T22:17:12.039Z,1.40
2023-04-18T22:22:14.090Z,1.40
2023-04-18T22:27:16.271Z,1.33
2023-04-18T22:32:18.392Z,1.48
2023-04-18T22:37:20.437Z,1.52
2023-04-18T22:42:22.465Z,1.25
2023-04-18T22:47:24.599Z,1.27
2023-04-18T22:52:26.676Z,1.80
2023-04-18T22:57:28.903Z,1.40
2023-04-18T23:02:31.213Z,1.20
2023-04-18T23:07:33.452Z,1.70
2023-04-18T23:12:35.549Z,1.40
2023-04-18T23:17:37.700Z,1.52
2023-04-18T23:22:39.931Z,1.35
2023-04-18T23:27:42.089Z,1.40
2023-04-18T23:32:44.191Z,1.70
2023-04-18T23:37:46.426Z,1.25
2023-04-18T23:42:48.753Z,1.40
2023-04-18T23:47:51.219Z,1.27
2023-04-18T23:52:53.325Z,1.70
2023-04-18T23:57:55.422Z,1.48
